Time;durP1;ratioP1;P1;durP2;ratioP2;P2;SDS_P1;SDS_P2;PMS_P1;PMS_P2;Temp;Humidity;BMP_temperature;BMP_pressure;BME280_temperature;BME280_humidity;BME280_pressure;Samples;Min_cycle;Max_cycle;Signal;HPM_P1;HPM_P2
2023/09/17 00:02:00;;;;;;;19.13;10.65;;;;;;;;;;5018047;27;98751;-62
2023/09/17 00:04:26;;;;;;;16.75;10.23;;;;;;;;;;5015079;27;100327;-61
2023/09/17 00:06:53;;;;;;;14.10;10.80;;;;;;;;;;5013947;27;99840;-62
2023/09/17 00:09:19;;;;;;;13.43;10.30;;;;;;;;;;5010770;27;98595;-62
2023/09/17 00:11:46;;;;;;;14.18;10.95;;;;;;;;;;5009347;27;99899;-62
2023/09/17 00:14:12;;;;;;;14.63;11.02;;;;;;;;;;5012064;27;100221;-61
2023/09/17 00:16:39;;;;;;;20.67;10.75;;;;;;;;;;5016366;27;100171;-61
2023/09/17 00:19:05;;;;;;;12.48;11.18;;;;;;;;;;5012266;27;99521;-61
2023/09/17 00:21:32;;;;;;;12.13;10.20;;;;;;;;;;5009554;27;100260;-61
2023/09/17 00:23:58;;;;;;;13.32;10.82;;;;;;;;;;5022496;27;99273;-62
2023/09/17 00:26:25;;;;;;;12.77;10.80;;;;;;;;;;5018657;27;99490;-61
2023/09/17 00:28:51;;;;;;;15.15;11.13;;;;;;;;;;5015983;27;98687;-61
2023/09/17 00:31:17;;;;;;;15.10;10.55;;;;;;;;;;5012715;27;99185;-61
2023/09/17 00:33:44;;;;;;;16.23;10.07;;;;;;;;;;5017320;27;99441;-61
2023/09/17 00:36:10;;;;;;;16.00;10.88;;;;;;;;;;5019382;27;98762;-60
2023/09/17 00:38:37;;;;;;;15.32;10.57;;;;;;;;;;5009785;27;101549;-61
2023/09/17 00:41:03;;;;;;;17.52;10.65;;;;;;;;;;5016013;27;100583;-61
2023/09/17 00:43:30;;;;;;;12.82;10.73;;;;;;;;;;5011102;27;100966;-62
2023/09/17 00:45:57;;;;;;;13.73;11.32;;;;;;;;;;5011654;27;100489;-61
2023/09/17 00:48:26;;;;;;;16.98;10.80;;;;;;;;;;5016324;27;99950;-61
2023/09/17 00:50:52;;;;;;;14.43;10.70;;;;;;;;;;5011668;27;99884;-61
2023/09/17 00:53:19;;;;;;;14.05;10.80;;;;;;;;;;5011121;27;99475;-61
2023/09/17 00:55:45;;;;;;;12.18;10.80;;;;;;;;;;5011497;27;98026;-61
2023/09/17 00:58:12;;;;;;;17.90;11.88;;;;;;;;;;5012518;27;99333;-61
2023/09/17 01:00:39;;;;;;;13.30;11.02;;;;;;;;;;5014037;27;98635;-60
2023/09/17 01:03:06;;;;;;;19.20;11.10;;;;;;;;;;5011033;27;100486;-61
2023/09/17 01:05:38;;;;;;;15.90;11.43;;;;;;;;;;5010007;27;99486;-61
2023/09/17 01:08:09;;;;;;;15.65;12.15;;;;;;;;;;5008338;27;98959;-61
2023/09/17 01:10:39;;;;;;;15.32;11.25;;;;;;;;;;5015597;27;99146;-62
2023/09/17 01:13:06;;;;;;;17.20;11.77;;;;;;;;;;5013041;27;100629;-61
2023/09/17 01:15:34;;;;;;;15.38;12.95;;;;;;;;;;5010647;27;99412;-61
2023/09/17 01:18:01;;;;;;;17.52;12.23;;;;;;;;;;5015012;27;100297;-62
2023/09/17 01:20:29;;;;;;;17.77;12.50;;;;;;;;;;5013149;27;100192;-61
2023/09/17 01:22:59;;;;;;;16.48;12.07;;;;;;;;;;5013409;27;98574;-61
2023/09/17 01:25:40;;;;;;;16.38;12.75;;;;;;;;;;5015863;27;99496;-60
2023/09/17 01:28:07;;;;;;;16.13;12.88;;;;;;;;;;5011524;27;99318;-61
2023/09/17 01:30:34;;;;;;;22.15;12.05;;;;;;;;;;5016029;27;100553;-61
2023/09/17 01:33:01;;;;;;;17.25;12.70;;;;;;;;;;5013169;27;99594;-60
2023/09/17 01:35:29;;;;;;;19.33;12.60;;;;;;;;;;5014616;27;98682;-60
2023/09/17 01:37:59;;;;;;;18.48;12.98;;;;;;;;;;5011618;27;99282;-61
2023/09/17 01:40:25;;;;;;;17.98;13.15;;;;;;;;;;5015704;27;98966;-61
2023/09/17 01:42:53;;;;;;;18.38;12.35;;;;;;;;;;5014209;27;98675;-61
2023/09/17 01:45:20;;;;;;;16.23;12.35;;;;;;;;;;5012373;27;99726;-61
2023/09/17 01:47:47;;;;;;;17.45;13.02;;;;;;;;;;5012110;27;98640;-60
2023/09/17 01:50:15;;;;;;;19.45;12.43;;;;;;;;;;5014301;27;99413;-61
2023/09/17 01:52:43;;;;;;;13.90;12.32;;;;;;;;;;5011894;27;100773;-60
2023/09/17 01:55:10;;;;;;;14.70;11.70;;;;;;;;;;5012196;27;99670;-61
2023/09/17 01:57:36;;;;;;;16.67;12.48;;;;;;;;;;5013707;27;99406;-61
2023/09/17 02:00:16;;;;;;;13.75;11.93;;;;;;;;;;5008157;27;99464;-62
2023/09/17 02:02:48;;;;;;;19.90;12.35;;;;;;;;;;5016011;27;98677;-63
2023/09/17 02:05:16;;;;;;;14.90;11.75;;;;;;;;;;5014565;27;99425;-62
2023/09/17 02:07:45;;;;;;;14.52;12.02;;;;;;;;;;5011071;27;98698;-62
2023/09/17 02:10:12;;;;;;;16.83;11.77;;;;;;;;;;5011018;27;100347;-62
2023/09/17 02:12:39;;;;;;;17.85;12.48;;;;;;;;;;5014924;27;99442;-62
2023/09/17 02:15:06;;;;;;;13.90;11.65;;;;;;;;;;5017939;27;98836;-62
2023/09/17 02:17:32;;;;;;;19.90;12.35;;;;;;;;;;5014458;27;99736;-63
2023/09/17 02:19:59;;;;;;;16.00;12.40;;;;;;;;;;5009723;27;99553;-63
2023/09/17 02:22:25;;;;;;;15.38;12.18;;;;;;;;;;5017463;27;98925;-62
2023/09/17 02:24:52;;;;;;;15.68;11.88;;;;;;;;;;5016980;27;99238;-62
2023/09/17 02:27:18;;;;;;;14.75;11.77;;;;;;;;;;5010741;27;99078;-62
2023/09/17 02:29:45;;;;;;;16.20;12.38;;;;;;;;;;5011714;27;99230;-62
2023/09/17 02:32:11;;;;;;;18.35;12.25;;;;;;;;;;5012947;27;99595;-62
2023/09/17 02:34:38;;;;;;;14.05;11.35;;;;;;;;;;5011308;27;97830;-62
2023/09/17 02:37:04;;;;;;;16.33;11.52;;;;;;;;;;5014854;27;98692;-63
2023/09/17 02:39:31;;;;;;;16.88;12.45;;;;;;;;;;5011519;27;99486;-63
2023/09/17 02:41:58;;;;;;;18.83;12.25;;;;;;;;;;5011953;27;102106;-63
2023/09/17 02:44:25;;;;;;;13.82;11.52;;;;;;;;;;5007937;27;100269;-64
2023/09/17 02:46:51;;;;;;;16.27;11.65;;;;;;;;;;5019863;27;99257;-63
2023/09/17 02:49:21;;;;;;;15.20;12.30;;;;;;;;;;5009219;27;98496;-61
2023/09/17 02:51:48;;;;;;;15.32;12.18;;;;;;;;;;5009312;27;102544;-63
2023/09/17 02:54:15;;;;;;;18.33;12.15;;;;;;;;;;5012122;27;98632;-62
2023/09/17 02:56:42;;;;;;;17.08;11.75;;;;;;;;;;5007390;27;99243;-63
2023/09/17 02:59:08;;;;;;;15.57;11.88;;;;;;;;;;5011664;27;98611;-63
2023/09/17 03:01:35;;;;;;;16.92;12.20;;;;;;;;;;5007911;27;99128;-63
2023/09/17 03:04:02;;;;;;;16.50;11.77;;;;;;;;;;5011619;27;99215;-61
2023/09/17 03:06:30;;;;;;;21.30;13.05;;;;;;;;;;5006548;27;100175;-60
2023/09/17 03:08:57;;;;;;;15.95;12.00;;;;;;;;;;5015455;27;98670;-60
2023/09/17 03:11:26;;;;;;;24.35;12.95;;;;;;;;;;5019528;27;99495;-61
2023/09/17 03:13:55;;;;;;;18.57;13.57;;;;;;;;;;5007593;27;98670;-60
2023/09/17 03:16:21;;;;;;;29.00;14.25;;;;;;;;;;5013858;27;99257;-60
2023/09/17 03:18:48;;;;;;;18.65;13.82;;;;;;;;;;5015594;27;100675;-61
2023/09/17 03:21:14;;;;;;;18.35;13.20;;;;;;;;;;5013014;27;98491;-60
2023/09/17 03:23:40;;;;;;;21.95;14.48;;;;;;;;;;5014294;27;100679;-60
2023/09/17 03:26:08;;;;;;;17.63;13.88;;;;;;;;;;5011664;27;99080;-60
2023/09/17 03:28:35;;;;;;;26.05;14.93;;;;;;;;;;5018417;27;99217;-60
2023/09/17 03:31:01;;;;;;;17.88;13.52;;;;;;;;;;5020753;27;99262;-60
2023/09/17 03:33:29;;;;;;;21.88;16.40;;;;;;;;;;5009896;27;98616;-60
2023/09/17 03:35:56;;;;;;;19.50;14.55;;;;;;;;;;5013262;27;100376;-60
2023/09/17 03:38:22;;;;;;;20.02;14.35;;;;;;;;;;5023371;27;99503;-60
2023/09/17 03:40:48;;;;;;;19.40;14.40;;;;;;;;;;5013851;27;99402;-61
2023/09/17 03:43:15;;;;;;;18.65;14.43;;;;;;;;;;5015503;27;99654;-61
2023/09/17 03:45:41;;;;;;;18.52;14.35;;;;;;;;;;5013856;27;100973;-61
2023/09/17 03:48:08;;;;;;;18.38;13.30;;;;;;;;;;5015958;27;98259;-61
2023/09/17 03:50:39;;;;;;;19.17;14.05;;;;;;;;;;5011274;27;98528;-60
2023/09/17 03:53:06;;;;;;;16.27;13.75;;;;;;;;;;5019916;27;99500;-60
2023/09/17 03:55:34;;;;;;;19.35;14.20;;;;;;;;;;5017280;27;100657;-59
2023/09/17 03:58:00;;;;;;;17.55;13.10;;;;;;;;;;5011630;27;99813;-61
2023/09/17 04:00:27;;;;;;;17.73;13.43;;;;;;;;;;5011357;27;99390;-60
2023/09/17 04:02:54;;;;;;;26.92;14.85;;;;;;;;;;5011229;27;99492;-60
2023/09/17 04:05:21;;;;;;;18.75;13.10;;;;;;;;;;5012031;27;99829;-61
2023/09/17 04:07:48;;;;;;;19.83;14.57;;;;;;;;;;5015821;27;98562;-59
2023/09/17 04:10:15;;;;;;;22.13;14.05;;;;;;;;;;5015818;27;100349;-60
2023/09/17 04:12:43;;;;;;;16.23;13.20;;;;;;;;;;5021401;27;98696;-60
2023/09/17 04:15:16;;;;;;;17.25;12.98;;;;;;;;;;5010422;27;101187;-61
2023/09/17 04:17:44;;;;;;;18.55;12.52;;;;;;;;;;5017254;27;100585;-60
2023/09/17 04:20:13;;;;;;;15.77;14.00;;;;;;;;;;5018531;27;99395;-60
2023/09/17 04:22:41;;;;;;;16.45;14.27;;;;;;;;;;5011754;27;100309;-60
2023/09/17 04:25:09;;;;;;;23.52;15.70;;;;;;;;;;5010053;27;99433;-60
2023/09/17 04:27:36;;;;;;;15.13;13.50;;;;;;;;;;5010445;27;98640;-61
2023/09/17 04:30:05;;;;;;;17.00;14.07;;;;;;;;;;5012581;27;99248;-60
2023/09/17 04:32:37;;;;;;;18.75;14.15;;;;;;;;;;5008892;27;100514;-61
2023/09/17 04:35:15;;;;;;;23.52;13.73;;;;;;;;;;5012740;27;98921;-61
2023/09/17 04:37:42;;;;;;;17.35;14.63;;;;;;;;;;5020918;27;100327;-61
2023/09/17 04:40:09;;;;;;;15.07;13.45;;;;;;;;;;5013904;27;98697;-61
2023/09/17 04:42:36;;;;;;;19.02;14.27;;;;;;;;;;5013270;27;99144;-61
2023/09/17 04:45:05;;;;;;;29.60;16.65;;;;;;;;;;5015866;27;100438;-61
2023/09/17 04:47:33;;;;;;;19.60;16.07;;;;;;;;;;5017774;27;98736;-61
2023/09/17 04:49:59;;;;;;;17.95;16.05;;;;;;;;;;5017970;27;99466;-61
2023/09/17 04:52:26;;;;;;;20.05;15.70;;;;;;;;;;5013187;27;100539;-60
2023/09/17 04:54:52;;;;;;;21.75;17.23;;;;;;;;;;5011192;27;98904;-60
2023/09/17 04:57:19;;;;;;;21.08;16.00;;;;;;;;;;5013032;27;99251;-60
2023/09/17 04:59:46;;;;;;;27.85;20.85;;;;;;;;;;5011272;27;98550;-61
2023/09/17 05:02:16;;;;;;;21.10;18.88;;;;;;;;;;5011529;27;98976;-60
2023/09/17 05:04:43;;;;;;;22.15;19.45;;;;;;;;;;5009285;27;99567;-60
2023/09/17 05:07:09;;;;;;;18.90;16.60;;;;;;;;;;5016276;27;98696;-59
2023/09/17 05:09:37;;;;;;;23.30;18.83;;;;;;;;;;5008926;27;99316;-60
2023/09/17 05:12:04;;;;;;;21.33;18.73;;;;;;;;;;5011546;27;100584;-60
2023/09/17 05:14:31;;;;;;;19.63;14.75;;;;;;;;;;5008635;27;98996;-61
2023/09/17 05:16:57;;;;;;;20.58;15.30;;;;;;;;;;5009872;27;100222;-61
2023/09/17 05:19:24;;;;;;;18.60;16.35;;;;;;;;;;5017435;27;100531;-61
2023/09/17 05:21:50;;;;;;;22.75;16.85;;;;;;;;;;5016373;27;101312;-60
2023/09/17 05:24:17;;;;;;;22.73;16.23;;;;;;;;;;5014022;27;99251;-61
2023/09/17 05:26:43;;;;;;;21.98;17.38;;;;;;;;;;5011162;27;98016;-62
2023/09/17 05:29:15;;;;;;;24.00;19.70;;;;;;;;;;5012297;27;99603;-63
2023/09/17 05:31:42;;;;;;;20.30;18.17;;;;;;;;;;5013584;27;100428;-61
2023/09/17 05:34:08;;;;;;;21.48;16.38;;;;;;;;;;5007169;27;99350;-63
2023/09/17 05:36:35;;;;;;;19.00;16.20;;;;;;;;;;5011424;27;101047;-64
2023/09/17 05:39:02;;;;;;;26.50;22.27;;;;;;;;;;5012703;27;103510;-63
2023/09/17 05:41:29;;;;;;;23.25;19.50;;;;;;;;;;5011681;27;98569;-63
2023/09/17 05:43:56;;;;;;;28.90;21.05;;;;;;;;;;5012764;27;99734;-62
2023/09/17 05:46:22;;;;;;;26.00;21.95;;;;;;;;;;5013041;27;101178;-62
2023/09/17 05:48:49;;;;;;;26.05;18.95;;;;;;;;;;5012322;27;100261;-62
2023/09/17 05:51:15;;;;;;;17.83;15.93;;;;;;;;;;5015456;27;98654;-62
2023/09/17 05:53:42;;;;;;;20.10;17.35;;;;;;;;;;5008916;27;98722;-62
2023/09/17 05:56:08;;;;;;;20.55;18.30;;;;;;;;;;5010724;27;100265;-63
2023/09/17 05:58:35;;;;;;;26.00;22.20;;;;;;;;;;5007031;27;100229;-63
2023/09/17 06:01:01;;;;;;;24.02;20.23;;;;;;;;;;5012921;27;98785;-62
2023/09/17 06:03:27;;;;;;;23.17;19.05;;;;;;;;;;5010962;27;100588;-62
2023/09/17 06:05:55;;;;;;;23.80;20.95;;;;;;;;;;5014905;27;98852;-63
2023/09/17 06:08:22;;;;;;;23.58;18.88;;;;;;;;;;5008015;27;101536;-62
2023/09/17 06:10:49;;;;;;;23.45;17.63;;;;;;;;;;5012810;27;100786;-62
2023/09/17 06:13:15;;;;;;;27.27;18.17;;;;;;;;;;5016911;27;98721;-62
2023/09/17 06:15:43;;;;;;;21.02;17.13;;;;;;;;;;5009178;27;99222;-62
2023/09/17 06:18:09;;;;;;;20.88;17.90;;;;;;;;;;5015845;27;99750;-62
2023/09/17 06:20:36;;;;;;;22.88;18.50;;;;;;;;;;5011339;27;98822;-60
2023/09/17 06:23:03;;;;;;;20.10;17.90;;;;;;;;;;5016838;27;99240;-62
2023/09/17 06:25:29;;;;;;;20.65;18.42;;;;;;;;;;5014662;27;98661;-61
2023/09/17 06:27:56;;;;;;;22.23;19.85;;;;;;;;;;5014260;27;101207;-61
2023/09/17 06:30:22;;;;;;;21.73;18.35;;;;;;;;;;5018581;27;99618;-61
2023/09/17 06:32:49;;;;;;;19.50;17.38;;;;;;;;;;5008974;27;98657;-61
2023/09/17 06:35:15;;;;;;;21.45;18.13;;;;;;;;;;5010941;27;99391;-61
2023/09/17 06:37:42;;;;;;;19.92;17.90;;;;;;;;;;5007865;27;99521;-62
2023/09/17 06:40:10;;;;;;;20.48;17.05;;;;;;;;;;5010396;27;99237;-62
2023/09/17 06:42:36;;;;;;;22.88;20.42;;;;;;;;;;5010407;27;99302;-62
2023/09/17 06:45:03;;;;;;;23.05;19.98;;;;;;;;;;5014066;27;99591;-62
2023/09/17 06:47:30;;;;;;;22.42;20.02;;;;;;;;;;5017821;27;100240;-61
2023/09/17 06:49:56;;;;;;;26.05;23.55;;;;;;;;;;5008279;27;100043;-61
2023/09/17 06:52:23;;;;;;;21.77;18.52;;;;;;;;;;5013040;27;98624;-62
2023/09/17 06:54:52;;;;;;;24.15;18.25;;;;;;;;;;5008077;27;100256;-62
2023/09/17 06:57:18;;;;;;;22.65;17.65;;;;;;;;;;5007426;27;99450;-62
2023/09/17 06:59:46;;;;;;;26.60;21.75;;;;;;;;;;5011812;27;98861;-61
2023/09/17 07:02:12;;;;;;;22.20;18.30;;;;;;;;;;5008022;27;99606;-60
2023/09/17 07:04:39;;;;;;;20.10;18.00;;;;;;;;;;5011895;27;98748;-61
2023/09/17 07:07:06;;;;;;;21.70;15.50;;;;;;;;;;5015166;27;98747;-60
2023/09/17 07:09:32;;;;;;;20.00;17.50;;;;;;;;;;5008541;27;98546;-62
2023/09/17 07:11:59;;;;;;;22.42;18.00;;;;;;;;;;5011239;27;99282;-62
2023/09/17 07:14:25;;;;;;;20.60;18.50;;;;;;;;;;5009012;27;100122;-60
2023/09/17 07:16:52;;;;;;;19.73;16.35;;;;;;;;;;5015903;27;100783;-62
2023/09/17 07:19:21;;;;;;;19.90;16.13;;;;;;;;;;5010940;27;98645;-62
2023/09/17 07:21:47;;;;;;;17.48;15.05;;;;;;;;;;5018751;27;99343;-62
2023/09/17 07:24:14;;;;;;;20.67;15.73;;;;;;;;;;5010365;27;99632;-62
2023/09/17 07:26:41;;;;;;;21.55;16.35;;;;;;;;;;5017087;27;98748;-62
2023/09/17 07:29:07;;;;;;;21.17;18.35;;;;;;;;;;5014368;27;99385;-62
2023/09/17 07:31:34;;;;;;;25.23;15.73;;;;;;;;;;5007378;27;99354;-66
2023/09/17 07:34:00;;;;;;;17.88;15.95;;;;;;;;;;5010227;27;99244;-65
2023/09/17 07:36:27;;;;;;;22.25;16.92;;;;;;;;;;5010976;27;101644;-64
2023/09/17 07:38:53;;;;;;;18.50;16.13;;;;;;;;;;5007411;27;98743;-64
2023/09/17 07:41:20;;;;;;;21.85;19.50;;;;;;;;;;5008535;27;99190;-63
2023/09/17 07:43:46;;;;;;;24.83;19.83;;;;;;;;;;5007136;27;100373;-63
2023/09/17 07:46:13;;;;;;;15.95;14.10;;;;;;;;;;5017074;27;100386;-63
2023/09/17 07:48:40;;;;;;;18.35;15.85;;;;;;;;;;5007064;27;99250;-64
2023/09/17 07:51:07;;;;;;;21.73;16.33;;;;;;;;;;5012461;27;100547;-64
2023/09/17 07:53:33;;;;;;;20.48;17.48;;;;;;;;;;5009183;27;99218;-64
2023/09/17 07:55:59;;;;;;;19.42;16.63;;;;;;;;;;5007614;27;100420;-66
2023/09/17 07:58:26;;;;;;;17.77;15.50;;;;;;;;;;5009259;27;98920;-64
2023/09/17 08:00:53;;;;;;;23.00;17.15;;;;;;;;;;5008793;27;99259;-63
2023/09/17 08:03:20;;;;;;;20.15;17.20;;;;;;;;;;5020828;27;99545;-65
2023/09/17 08:05:47;;;;;;;19.13;17.20;;;;;;;;;;5011188;27;98544;-64
2023/09/17 08:08:14;;;;;;;19.90;17.90;;;;;;;;;;5014561;27;99553;-63
2023/09/17 08:10:41;;;;;;;18.27;16.35;;;;;;;;;;5010504;27;99422;-65
2023/09/17 08:13:08;;;;;;;19.35;16.15;;;;;;;;;;5013430;27;99386;-64
2023/09/17 08:15:35;;;;;;;17.17;15.27;;;;;;;;;;5016545;27;100486;-64
2023/09/17 08:18:01;;;;;;;19.05;16.08;;;;;;;;;;5019537;27;98154;-64
2023/09/17 08:20:28;;;;;;;18.95;15.75;;;;;;;;;;5019278;27;98753;-65
2023/09/17 08:22:54;;;;;;;19.85;16.42;;;;;;;;;;5013027;27;99346;-65
2023/09/17 08:25:21;;;;;;;19.90;17.77;;;;;;;;;;5017966;27;99470;-64
2023/09/17 08:27:48;;;;;;;20.25;17.73;;;;;;;;;;5011758;27;99900;-65
2023/09/17 08:30:15;;;;;;;19.02;16.45;;;;;;;;;;5018723;27;99500;-64
2023/09/17 08:32:43;;;;;;;20.83;18.25;;;;;;;;;;5013704;27;98465;-64
2023/09/17 08:35:14;;;;;;;20.40;16.48;;;;;;;;;;5009933;27;99569;-64
2023/09/17 08:37:42;;;;;;;28.52;17.30;;;;;;;;;;5010236;27;99339;-65
2023/09/17 08:40:09;;;;;;;20.08;17.75;;;;;;;;;;5014299;27;99503;-65
2023/09/17 08:42:38;;;;;;;18.23;15.60;;;;;;;;;;5016287;27;99266;-65
2023/09/17 08:45:05;;;;;;;19.10;16.05;;;;;;;;;;5016009;27;98852;-66
2023/09/17 08:47:32;;;;;;;20.88;16.75;;;;;;;;;;5021051;27;99818;-65
2023/09/17 08:49:58;;;;;;;20.15;16.77;;;;;;;;;;5011785;27;100254;-64
2023/09/17 08:52:26;;;;;;;25.52;17.45;;;;;;;;;;5011430;27;98686;-65
2023/09/17 08:54:53;;;;;;;19.17;15.70;;;;;;;;;;5015270;27;99545;-65
2023/09/17 08:57:22;;;;;;;20.70;16.90;;;;;;;;;;5013269;27;98917;-65
2023/09/17 08:59:51;;;;;;;22.83;17.45;;;;;;;;;;5013683;27;99280;-64
2023/09/17 09:02:23;;;;;;;28.90;18.15;;;;;;;;;;5013736;27;99548;-64
2023/09/17 09:04:51;;;;;;;20.58;16.90;;;;;;;;;;5013795;27;99687;-64
2023/09/17 09:07:20;;;;;;;20.15;16.92;;;;;;;;;;5017644;28;101557;-64
2023/09/17 09:09:48;;;;;;;24.08;18.25;;;;;;;;;;5008976;27;99393;-64
2023/09/17 09:12:15;;;;;;;21.00;16.75;;;;;;;;;;5013050;27;98548;-65
2023/09/17 09:14:42;;;;;;;18.33;16.30;;;;;;;;;;5010146;27;99532;-65
2023/09/17 09:17:10;;;;;;;21.77;16.17;;;;;;;;;;5020504;27;100638;-65
2023/09/17 09:19:37;;;;;;;19.77;17.52;;;;;;;;;;5012014;27;100786;-64
2023/09/17 09:22:03;;;;;;;20.83;17.92;;;;;;;;;;5011118;27;101102;-64
2023/09/17 09:24:50;;;;;;;21.23;16.33;;;;;;;;;;5011320;27;98587;-64
2023/09/17 09:27:17;;;;;;;23.15;18.60;;;;;;;;;;5010065;27;99818;-64
2023/09/17 09:29:43;;;;;;;23.17;19.08;;;;;;;;;;5009723;27;100142;-65
2023/09/17 09:32:10;;;;;;;23.35;18.02;;;;;;;;;;5011636;27;98401;-65
2023/09/17 09:34:38;;;;;;;24.73;19.52;;;;;;;;;;5009830;27;98995;-64
2023/09/17 09:37:05;;;;;;;24.95;18.42;;;;;;;;;;5013933;27;99757;-64
2023/09/17 09:39:32;;;;;;;29.35;19.85;;;;;;;;;;5011475;27;99644;-64
2023/09/17 09:41:58;;;;;;;22.75;19.48;;;;;;;;;;5008587;27;100540;-64
2023/09/17 09:44:25;;;;;;;26.25;20.30;;;;;;;;;;5013237;27;99133;-63
2023/09/17 09:46:57;;;;;;;27.35;20.60;;;;;;;;;;5014573;27;100269;-63
2023/09/17 09:49:24;;;;;;;22.98;19.30;;;;;;;;;;5009632;27;100130;-63
2023/09/17 09:51:51;;;;;;;31.38;20.23;;;;;;;;;;5010736;27;98744;-64
2023/09/17 09:54:17;;;;;;;25.88;20.80;;;;;;;;;;5015818;27;100416;-63
2023/09/17 09:56:47;;;;;;;24.05;20.30;;;;;;;;;;5013533;27;99725;-63
2023/09/17 09:59:14;;;;;;;27.42;20.10;;;;;;;;;;5013162;27;100127;-63
2023/09/17 10:01:40;;;;;;;30.27;23.38;;;;;;;;;;5015273;27;99237;-63
2023/09/17 10:04:11;;;;;;;32.22;22.50;;;;;;;;;;5012212;27;99784;-62
2023/09/17 10:06:40;;;;;;;25.02;20.77;;;;;;;;;;5013875;27;100136;-62
2023/09/17 10:09:10;;;;;;;29.47;21.53;;;;;;;;;;5009496;27;100691;-63
2023/09/17 10:11:37;;;;;;;31.50;23.52;;;;;;;;;;5008572;27;99032;-63
2023/09/17 10:14:05;;;;;;;34.53;23.13;;;;;;;;;;5007375;27;100261;-63
2023/09/17 10:16:33;;;;;;;33.20;21.35;;;;;;;;;;5012289;27;100271;-62
2023/09/17 10:19:00;;;;;;;31.85;23.63;;;;;;;;;;5010995;27;98654;-62
2023/09/17 10:21:27;;;;;;;34.90;24.10;;;;;;;;;;5018125;27;99186;-63
2023/09/17 10:23:55;;;;;;;30.55;23.25;;;;;;;;;;5011980;27;98803;-63
2023/09/17 10:26:22;;;;;;;32.45;23.65;;;;;;;;;;5010789;27;100268;-63
2023/09/17 10:28:51;;;;;;;36.13;25.30;;;;;;;;;;5011007;27;100237;-63
2023/09/17 10:31:18;;;;;;;33.55;26.20;;;;;;;;;;5015039;27;98617;-63
2023/09/17 10:33:46;;;;;;;33.13;23.35;;;;;;;;;;5011827;27;100050;-63
2023/09/17 10:36:13;;;;;;;33.53;25.77;;;;;;;;;;5013324;27;99530;-63
2023/09/17 10:38:41;;;;;;;30.90;24.30;;;;;;;;;;5011991;27;98758;-63
2023/09/17 10:41:08;;;;;;;43.95;24.50;;;;;;;;;;5018401;27;100437;-63
2023/09/17 10:43:38;;;;;;;28.40;23.17;;;;;;;;;;5014051;27;99529;-63
2023/09/17 10:46:06;;;;;;;31.30;24.35;;;;;;;;;;5009867;27;100548;-63
2023/09/17 10:48:33;;;;;;;34.20;25.52;;;;;;;;;;5010929;27;99481;-62
2023/09/17 10:51:00;;;;;;;31.45;25.00;;;;;;;;;;5011329;27;100475;-63
2023/09/17 10:53:27;;;;;;;40.28;25.02;;;;;;;;;;5011201;27;101467;-63
2023/09/17 10:55:59;;;;;;;36.60;26.67;;;;;;;;;;5011820;27;99786;-63
2023/09/17 10:58:33;;;;;;;33.78;25.60;;;;;;;;;;5014366;27;98495;-63
2023/09/17 11:01:00;;;;;;;37.83;26.77;;;;;;;;;;5011668;27;100344;-63
2023/09/17 11:03:28;;;;;;;37.35;26.35;;;;;;;;;;5009698;27;99632;-63
2023/09/17 11:05:56;;;;;;;44.40;26.83;;;;;;;;;;5015387;27;99951;-63
2023/09/17 11:08:23;;;;;;;34.47;26.20;;;;;;;;;;5009791;27;100604;-63
2023/09/17 11:10:49;;;;;;;50.85;32.03;;;;;;;;;;5008073;27;97982;-65
2023/09/17 11:13:16;;;;;;;44.55;29.10;;;;;;;;;;5013087;27;98619;-65
2023/09/17 11:15:42;;;;;;;41.28;27.92;;;;;;;;;;5005667;27;99642;-65
2023/09/17 11:18:09;;;;;;;42.53;29.58;;;;;;;;;;5013866;27;99253;-65
2023/09/17 11:20:38;;;;;;;41.65;28.58;;;;;;;;;;5008352;27;100423;-64
2023/09/17 11:23:05;;;;;;;50.03;29.65;;;;;;;;;;5012706;27;100478;-63
2023/09/17 11:25:35;;;;;;;43.78;29.42;;;;;;;;;;5011177;27;98920;-64
2023/09/17 11:28:12;;;;;;;40.08;28.60;;;;;;;;;;5010193;27;100326;-63
2023/09/17 11:30:57;;;;;;;43.35;28.67;;;;;;;;;;5012862;27;98576;-63
2023/09/17 11:33:23;;;;;;;47.33;29.88;;;;;;;;;;5008515;27;99254;-63
2023/09/17 11:35:50;;;;;;;46.25;29.63;;;;;;;;;;5011288;27;98835;-63
2023/09/17 11:38:21;;;;;;;54.15;31.00;;;;;;;;;;5011320;27;98684;-63
2023/09/17 11:40:59;;;;;;;46.80;29.38;;;;;;;;;;5016166;27;99206;-63
2023/09/17 11:43:26;;;;;;;48.42;30.48;;;;;;;;;;5014695;27;101230;-63
2023/09/17 11:45:53;;;;;;;44.17;29.17;;;;;;;;;;5015399;27;99409;-62
2023/09/17 11:48:19;;;;;;;57.47;31.45;;;;;;;;;;5015623;27;100297;-63
2023/09/17 11:50:47;;;;;;;48.67;30.33;;;;;;;;;;5018413;27;102045;-63
2023/09/17 11:53:15;;;;;;;53.50;29.73;;;;;;;;;;5013769;27;99121;-63
2023/09/17 11:55:42;;;;;;;53.95;31.13;;;;;;;;;;5013800;27;100192;-63
2023/09/17 11:58:15;;;;;;;49.40;30.13;;;;;;;;;;5017144;27;98657;-63
2023/09/17 12:00:41;;;;;;;50.30;31.25;;;;;;;;;;5015268;27;101050;-63
2023/09/17 12:03:10;;;;;;;55.47;30.85;;;;;;;;;;5013675;27;99510;-63
2023/09/17 12:05:37;;;;;;;54.53;30.48;;;;;;;;;;5008659;27;98633;-63
2023/09/17 12:08:04;;;;;;;53.90;30.92;;;;;;;;;;5009054;27;99720;-63
2023/09/17 12:10:36;;;;;;;48.30;29.38;;;;;;;;;;5012022;27;99576;-63
2023/09/17 12:13:04;;;;;;;51.72;30.27;;;;;;;;;;5019218;27;98704;-63
2023/09/17 12:15:30;;;;;;;52.72;29.90;;;;;;;;;;5015484;27;100439;-64
2023/09/17 12:17:57;;;;;;;62.90;32.47;;;;;;;;;;5015457;27;98500;-64
2023/09/17 12:20:49;;;;;;;55.22;31.13;;;;;;;;;;5009218;27;101436;-64
2023/09/17 12:23:22;;;;;;;53.10;30.60;;;;;;;;;;5011771;27;99611;-63
2023/09/17 12:25:48;;;;;;;52.78;30.85;;;;;;;;;;5017225;27;97907;-65
2023/09/17 12:28:15;;;;;;;67.80;32.90;;;;;;;;;;5014771;27;99252;-62
2023/09/17 12:30:42;;;;;;;69.47;34.28;;;;;;;;;;5015708;27;101765;-62
2023/09/17 12:33:09;;;;;;;56.70;31.27;;;;;;;;;;5019298;27;101132;-63
2023/09/17 12:35:36;;;;;;;62.33;31.70;;;;;;;;;;5011996;27;99445;-62
2023/09/17 12:38:06;;;;;;;55.20;31.45;;;;;;;;;;5009239;27;98586;-63
2023/09/17 12:40:32;;;;;;;62.25;33.90;;;;;;;;;;5011098;27;99243;-63
2023/09/17 12:42:59;;;;;;;66.30;33.30;;;;;;;;;;5022132;27;99489;-63
2023/09/17 12:45:25;;;;;;;65.28;33.78;;;;;;;;;;5012301;27;99086;-63
2023/09/17 12:47:52;;;;;;;62.25;33.17;;;;;;;;;;5013351;27;100373;-63
2023/09/17 12:50:19;;;;;;;66.88;33.65;;;;;;;;;;5012078;27;99881;-62
2023/09/17 12:52:46;;;;;;;66.95;34.05;;;;;;;;;;5013177;27;99180;-64
2023/09/17 12:55:12;;;;;;;64.65;33.65;;;;;;;;;;5017079;27;100409;-64
2023/09/17 12:57:40;;;;;;;65.70;33.65;;;;;;;;;;5007927;27;99392;-62
2023/09/17 13:00:07;;;;;;;60.22;32.72;;;;;;;;;;5015481;27;99951;-61
2023/09/17 13:02:34;;;;;;;69.10;33.38;;;;;;;;;;5014851;27;100495;-62
2023/09/17 13:05:01;;;;;;;64.75;34.70;;;;;;;;;;5019913;27;98982;-62
2023/09/17 13:07:29;;;;;;;59.97;33.45;;;;;;;;;;5019986;27;99313;-62
2023/09/17 13:09:58;;;;;;;68.45;31.60;;;;;;;;;;5012402;27;100157;-62
2023/09/17 13:12:26;;;;;;;61.03;34.25;;;;;;;;;;5016539;27;98640;-61
2023/09/17 13:14:53;;;;;;;59.78;32.30;;;;;;;;;;5014136;27;99145;-62
2023/09/17 13:17:20;;;;;;;69.07;34.60;;;;;;;;;;5018822;27;99467;-62
2023/09/17 13:19:47;;;;;;;62.85;31.80;;;;;;;;;;5011511;27;100353;-63
2023/09/17 13:22:14;;;;;;;56.75;29.42;;;;;;;;;;5014885;27;100633;-63
2023/09/17 13:24:40;;;;;;;61.95;30.63;;;;;;;;;;5019683;27;98739;-62
2023/09/17 13:27:08;;;;;;;67.18;32.90;;;;;;;;;;5020409;27;99607;-62
2023/09/17 13:29:40;;;;;;;65.07;32.25;;;;;;;;;;5016106;27;99670;-62
2023/09/17 13:32:09;;;;;;;57.35;30.77;;;;;;;;;;5020212;27;98640;-62
2023/09/17 13:34:37;;;;;;;59.47;31.48;;;;;;;;;;5018250;27;99291;-62
2023/09/17 13:37:04;;;;;;;54.28;29.95;;;;;;;;;;5016864;27;100529;-62
2023/09/17 13:39:31;;;;;;;59.05;30.98;;;;;;;;;;5019190;27;97836;-63
2023/09/17 13:41:57;;;;;;;52.17;30.92;;;;;;;;;;5009031;27;99539;-63
2023/09/17 13:44:23;;;;;;;52.42;30.40;;;;;;;;;;5022402;27;98794;-63
2023/09/17 13:46:50;;;;;;;58.85;29.98;;;;;;;;;;5011549;27;99614;-62
2023/09/17 13:49:16;;;;;;;58.15;30.15;;;;;;;;;;5019746;27;100523;-63
2023/09/17 13:51:43;;;;;;;48.97;29.00;;;;;;;;;;5013087;27;98829;-63
2023/09/17 13:54:09;;;;;;;54.75;29.42;;;;;;;;;;5021251;27;100306;-63
2023/09/17 13:56:35;;;;;;;57.38;29.33;;;;;;;;;;5012067;27;99613;-63
2023/09/17 13:59:02;;;;;;;54.47;30.10;;;;;;;;;;5015549;27;98449;-64
2023/09/17 14:01:28;;;;;;;65.28;31.58;;;;;;;;;;5012846;27;99775;-64
2023/09/17 14:03:55;;;;;;;55.90;29.65;;;;;;;;;;5013330;27;98092;-63
2023/09/17 14:06:21;;;;;;;57.13;29.48;;;;;;;;;;5010284;27;99510;-63
2023/09/17 14:08:48;;;;;;;53.72;30.05;;;;;;;;;;5013149;27;99604;-63
2023/09/17 14:11:14;;;;;;;54.15;28.83;;;;;;;;;;5010969;27;99384;-64
2023/09/17 14:13:41;;;;;;;48.25;27.23;;;;;;;;;;5007949;27;100317;-64
2023/09/17 14:16:07;;;;;;;51.70;28.70;;;;;;;;;;5012592;27;99564;-64